Time;durP1;ratioP1;P1;durP2;ratioP2;P2;SDS_P1;SDS_P2;PMS_P1;PMS_P2;Temp;Humidity;BMP_temperature;BMP_pressure;BME280_temperature;BME280_humidity;BME280_pressure;Samples;Min_cycle;Max_cycle;Signal;HPM_P1;HPM_P2
2023/07/23 00:01:26;;;;;;;;;;;29.90;99.90;;;;;;5136385;27;20473;-76
2023/07/23 00:03:52;;;;;;;;;;;30.00;99.90;;;;;;5137753;27;19914;-76
2023/07/23 00:06:18;;;;;;;;;;;30.00;99.90;;;;;;5137943;27;19903;-75
2023/07/23 00:08:44;;;;;;;;;;;30.00;99.90;;;;;;5137851;27;19903;-76
2023/07/23 00:11:09;;;;;;;;;;;29.90;99.90;;;;;;5137409;27;19904;-75
2023/07/23 00:13:35;;;;;;;;;;;29.90;99.90;;;;;;5137521;27;19928;-75
2023/07/23 00:16:02;;;;;;;;;;;30.00;99.90;;;;;;5137462;27;19911;-76
2023/07/23 00:18:28;;;;;;;;;;;29.90;99.90;;;;;;5137375;27;19903;-75
2023/07/23 00:20:54;;;;;;;;;;;29.80;99.90;;;;;;5137417;27;20018;-75
2023/07/23 00:23:19;;;;;;;;;;;29.90;99.90;;;;;;5137367;27;19911;-74
2023/07/23 00:25:45;;;;;;;;;;;30.00;99.90;;;;;;5137856;27;20439;-75
2023/07/23 00:28:11;;;;;;;;;;;30.10;99.90;;;;;;5137513;27;19910;-76
2023/07/23 00:30:37;;;;;;;;;;;30.20;99.90;;;;;;5137395;27;19963;-75
2023/07/23 00:33:03;;;;;;;;;;;30.30;99.90;;;;;;5137158;27;20006;-76
2023/07/23 00:35:28;;;;;;;;;;;30.30;99.90;;;;;;5137420;27;19908;-76
2023/07/23 00:37:54;;;;;;;;;;;30.40;99.90;;;;;;5137386;27;19914;-76
2023/07/23 00:40:20;;;;;;;;;;;30.50;99.90;;;;;;5137325;27;20278;-76
2023/07/23 00:42:46;;;;;;;;;;;30.50;99.90;;;;;;5136936;27;20006;-76
2023/07/23 00:45:11;;;;;;;;;;;30.50;99.90;;;;;;5137466;27;19904;-76
2023/07/23 00:47:37;;;;;;;;;;;30.60;99.90;;;;;;5137049;27;19903;-76
2023/07/23 00:50:03;;;;;;;;;;;30.60;99.90;;;;;;5136896;27;20374;-76
2023/07/23 00:52:31;;;;;;;;;;;30.60;99.90;;;;;;5136853;27;19961;-76
2023/07/23 00:54:56;;;;;;;;;;;30.60;99.90;;;;;;5136697;27;19904;-76
2023/07/23 00:57:22;;;;;;;;;;;30.60;99.90;;;;;;5136707;27;19911;-76
2023/07/23 00:59:48;;;;;;;;;;;30.70;99.90;;;;;;5136724;27;19903;-76
2023/07/23 01:02:14;;;;;;;;;;;30.60;99.90;;;;;;5137051;27;19915;-75
2023/07/23 01:04:40;;;;;;;;;;;30.60;99.90;;;;;;5136599;27;20001;-75
2023/07/23 01:07:07;;;;;;;;;;;30.50;99.90;;;;;;5136281;27;19904;-75
2023/07/23 01:09:34;;;;;;;;;;;30.50;99.90;;;;;;5136665;27;20313;-75
2023/07/23 01:12:02;;;;;;;;;;;30.50;99.90;;;;;;5136380;27;19907;-75
2023/07/23 01:14:27;;;;;;;;;;;30.60;99.90;;;;;;5134670;27;19957;-75
2023/07/23 01:16:54;;;;;;;;;;;30.60;99.90;;;;;;5135003;27;19904;-75
2023/07/23 01:19:20;;;;;;;;;;;30.60;99.90;;;;;;5136446;27;20002;-75
2023/07/23 01:21:46;;;;;;;;;;;30.60;99.90;;;;;;5136101;27;20014;-75
2023/07/23 01:24:12;;;;;;;;;;;30.60;99.90;;;;;;5136628;27;19907;-75
2023/07/23 01:26:37;;;;;;;;;;;30.60;99.90;;;;;;5136078;27;19903;-75
2023/07/23 01:29:03;;;;;;;;;;;30.60;99.90;;;;;;5136631;27;19903;-75
2023/07/23 01:31:29;;;;;;;;;;;30.60;99.90;;;;;;5135932;27;19911;-75
2023/07/23 01:33:55;;;;;;;;;;;30.50;99.90;;;;;;5136554;27;19911;-75
2023/07/23 01:36:21;;;;;;;;;;;30.50;99.90;;;;;;5136001;27;19903;-75
2023/07/23 01:38:47;;;;;;;;;;;30.50;99.90;;;;;;5134489;27;19903;-75
2023/07/23 01:41:13;;;;;;;;;;;30.50;99.90;;;;;;5135845;27;19938;-76
2023/07/23 01:43:39;;;;;;;;;;;30.40;99.90;;;;;;5136235;27;20010;-76
2023/07/23 01:46:05;;;;;;;;;;;30.40;99.90;;;;;;5135795;27;20272;-76
2023/07/23 01:48:30;;;;;;;;;;;30.40;99.90;;;;;;5136227;27;20362;-76
2023/07/23 01:50:56;;;;;;;;;;;30.40;99.90;;;;;;5135884;27;19903;-76
2023/07/23 01:53:22;;;;;;;;;;;30.40;99.90;;;;;;5135698;27;20271;-76
2023/07/23 01:55:48;;;;;;;;;;;30.40;99.90;;;;;;5134192;27;19904;-74
2023/07/23 01:58:14;;;;;;;;;;;30.30;99.90;;;;;;5134785;27;19910;-74
2023/07/23 02:00:39;;;;;;;;;;;30.30;99.90;;;;;;5135626;27;19954;-74
2023/07/23 02:03:06;;;;;;;;;;;30.30;99.90;;;;;;5135561;27;19936;-76
2023/07/23 02:05:32;;;;;;;;;;;30.30;99.90;;;;;;5136211;27;20092;-77
2023/07/23 02:07:58;;;;;;;;;;;30.30;99.90;;;;;;5135619;27;20015;-76
2023/07/23 02:10:23;;;;;;;;;;;30.30;99.90;;;;;;5135488;27;20115;-76
2023/07/23 02:12:49;;;;;;;;;;;30.30;99.90;;;;;;5135914;27;20035;-75
2023/07/23 02:15:15;;;;;;;;;;;30.30;99.90;;;;;;5135421;27;19904;-74
2023/07/23 02:17:41;;;;;;;;;;;30.30;99.90;;;;;;5133815;27;19972;-74
2023/07/23 02:20:08;;;;;;;;;;;30.20;99.90;;;;;;5135307;27;20046;-74
2023/07/23 02:22:34;;;;;;;;;;;30.30;99.90;;;;;;5135033;27;19911;-75
2023/07/23 02:25:00;;;;;;;;;;;30.20;99.90;;;;;;5135372;27;19908;-74
2023/07/23 02:27:26;;;;;;;;;;;30.30;99.90;;;;;;5135055;27;19904;-74
2023/07/23 02:29:51;;;;;;;;;;;30.20;99.90;;;;;;5135062;27;19910;-74
2023/07/23 02:32:17;;;;;;;;;;;30.30;99.90;;;;;;5134801;27;19922;-74
2023/07/23 02:34:43;;;;;;;;;;;30.20;99.90;;;;;;5133397;27;20410;-75
2023/07/23 02:37:09;;;;;;;;;;;30.20;99.90;;;;;;5133354;27;19907;-74
2023/07/23 02:39:34;;;;;;;;;;;30.20;99.90;;;;;;5135081;27;19911;-75
2023/07/23 02:42:00;;;;;;;;;;;30.20;99.90;;;;;;5133031;27;19950;-75
2023/07/23 02:44:26;;;;;;;;;;;30.20;99.90;;;;;;5134664;27;20317;-75
2023/07/23 02:46:52;;;;;;;;;;;30.30;99.90;;;;;;5134522;27;20002;-75
2023/07/23 02:49:18;;;;;;;;;;;30.20;99.90;;;;;;5133199;27;19960;-75
2023/07/23 02:51:44;;;;;;;;;;;30.40;99.90;;;;;;5134703;27;19983;-75
2023/07/23 02:54:10;;;;;;;;;;;30.40;99.90;;;;;;5133087;27;19907;-75
2023/07/23 02:56:35;;;;;;;;;;;30.30;99.90;;;;;;5134302;27;20366;-75
2023/07/23 02:59:04;;;;;;;;;;;30.20;99.90;;;;;;5134714;27;19908;-74
2023/07/23 03:01:30;;;;;;;;;;;30.20;99.90;;;;;;5134321;27;20049;-74
2023/07/23 03:03:56;;;;;;;;;;;30.20;99.90;;;;;;5134583;27;19907;-75
2023/07/23 03:06:22;;;;;;;;;;;30.30;99.90;;;;;;5134234;27;19903;-75
2023/07/23 03:08:48;;;;;;;;;;;30.40;99.90;;;;;;5134294;27;19917;-75
2023/07/23 03:11:13;;;;;;;;;;;30.60;99.90;;;;;;5134360;27;20339;-75
2023/07/23 03:13:39;;;;;;;;;;;30.50;99.90;;;;;;5134576;27;20355;-74
2023/07/23 03:16:05;;;;;;;;;;;30.50;99.90;;;;;;5134162;27;19956;-75
2023/07/23 03:18:31;;;;;;;;;;;30.40;99.90;;;;;;5132723;27;19907;-74
2023/07/23 03:20:57;;;;;;;;;;;30.30;99.90;;;;;;5134613;27;20370;-76
2023/07/23 03:23:23;;;;;;;;;;;30.30;99.90;;;;;;5134090;27;19911;-75
2023/07/23 03:25:48;;;;;;;;;;;30.20;99.90;;;;;;5134106;27;19904;-76
2023/07/23 03:28:15;;;;;;;;;;;30.20;99.90;;;;;;5133094;27;19904;-75
2023/07/23 03:30:40;;;;;;;;;;;30.20;99.90;;;;;;5132930;27;20270;-75
2023/07/23 03:33:06;;;;;;;;;;;30.10;99.90;;;;;;5133899;27;20398;-75
2023/07/23 03:35:32;;;;;;;;;;;30.20;99.90;;;;;;5134018;27;19939;-75
2023/07/23 03:37:58;;;;;;;;;;;30.20;99.90;;;;;;5134077;27;20312;-75
2023/07/23 03:40:23;;;;;;;;;;;30.30;99.90;;;;;;5133702;27;19903;-75
2023/07/23 03:42:49;;;;;;;;;;;30.30;99.90;;;;;;5133766;27;19926;-75
2023/07/23 03:45:15;;;;;;;;;;;30.40;99.90;;;;;;5134451;27;19909;-75
2023/07/23 03:47:41;;;;;;;;;;;30.50;99.90;;;;;;5132453;28;19949;-74
2023/07/23 03:50:07;;;;;;;;;;;30.60;99.90;;;;;;5134256;27;19903;-75
2023/07/23 03:52:33;;;;;;;;;;;30.70;99.90;;;;;;5133843;27;19903;-74
2023/07/23 03:54:58;;;;;;;;;;;30.70;99.90;;;;;;5133810;28;19903;-74
2023/07/23 03:57:24;;;;;;;;;;;30.60;99.90;;;;;;5133871;27;20263;-75
2023/07/23 03:59:50;;;;;;;;;;;30.60;99.90;;;;;;5133732;27;20019;-74
2023/07/23 04:02:16;;;;;;;;;;;30.60;99.90;;;;;;5133693;27;19907;-75
2023/07/23 04:04:42;;;;;;;;;;;30.60;99.90;;;;;;5134159;27;19903;-75
2023/07/23 04:07:08;;;;;;;;;;;30.70;99.90;;;;;;5133843;27;19903;-75
2023/07/23 04:09:34;;;;;;;;;;;30.70;99.90;;;;;;5134072;28;19971;-75
2023/07/23 04:12:00;;;;;;;;;;;30.70;99.90;;;;;;5133471;27;19918;-75
2023/07/23 04:14:26;;;;;;;;;;;30.70;99.90;;;;;;5133750;27;19911;-76
2023/07/23 04:16:53;;;;;;;;;;;30.70;99.90;;;;;;5133503;27;19946;-75
2023/07/23 04:19:18;;;;;;;;;;;30.70;99.90;;;;;;5133947;27;19910;-75
2023/07/23 04:21:44;;;;;;;;;;;30.70;99.90;;;;;;5133526;28;20345;-76
2023/07/23 04:24:10;;;;;;;;;;;30.70;99.90;;;;;;5132107;28;20354;-76
2023/07/23 04:26:36;;;;;;;;;;;30.80;99.90;;;;;;5131822;28;19980;-75
2023/07/23 04:29:02;;;;;;;;;;;30.80;99.90;;;;;;5133398;27;19907;-76
2023/07/23 04:31:28;;;;;;;;;;;30.80;99.90;;;;;;5133159;27;19934;-76
2023/07/23 04:33:54;;;;;;;;;;;30.70;99.90;;;;;;5133639;27;20298;-75
2023/07/23 04:36:20;;;;;;;;;;;30.70;99.90;;;;;;5133319;27;19960;-75
2023/07/23 04:38:46;;;;;;;;;;;30.80;99.90;;;;;;5133813;27;19942;-75
2023/07/23 04:41:12;;;;;;;;;;;30.80;99.90;;;;;;5134202;27;19903;-75
2023/07/23 04:43:39;;;;;;;;;;;30.80;99.90;;;;;;5137515;27;19963;-75
2023/07/23 04:46:05;;;;;;;;;;;30.80;99.90;;;;;;5136887;27;19909;-75
2023/07/23 04:48:31;;;;;;;;;;;30.90;99.90;;;;;;5137065;27;19998;-75
2023/07/23 04:50:58;;;;;;;;;;;30.90;99.90;;;;;;5136918;27;20359;-75
2023/07/23 04:53:24;;;;;;;;;;;31.00;99.90;;;;;;5137202;27;19926;-76
2023/07/23 04:55:51;;;;;;;;;;;31.20;99.90;;;;;;5136688;27;19907;-75
2023/07/23 04:58:17;;;;;;;;;;;31.30;99.90;;;;;;5137118;27;19927;-76
2023/07/23 05:00:43;;;;;;;;;;;31.40;99.90;;;;;;5137613;27;19907;-76
2023/07/23 05:03:09;;;;;;;;;;;31.50;99.90;;;;;;5136841;27;19918;-75
2023/07/23 05:05:34;;;;;;;;;;;31.60;99.90;;;;;;5137059;27;19903;-76
2023/07/23 05:08:00;;;;;;;;;;;31.70;99.90;;;;;;5135585;27;19933;-75
2023/07/23 05:10:26;;;;;;;;;;;31.90;99.90;;;;;;5136578;27;20378;-76
2023/07/23 05:12:52;;;;;;;;;;;32.00;99.90;;;;;;5137103;27;19909;-75
2023/07/23 05:15:17;;;;;;;;;;;32.50;99.90;;;;;;5136908;27;20313;-76
2023/07/23 05:17:43;;;;;;;;;;;33.00;99.00;;;;;;5136835;27;20046;-74
2023/07/23 05:20:09;;;;;;;;;;;33.90;97.80;;;;;;5136451;27;20423;-76
2023/07/23 05:22:39;;;;;;;;;;;34.90;96.40;;;;;;5136285;27;19961;-76
2023/07/23 05:25:05;;;;;;;;;;;35.50;94.70;;;;;;5136703;27;20381;-76
2023/07/23 05:27:30;;;;;;;;;;;36.00;92.80;;;;;;5136536;27;20252;-76
2023/07/23 05:29:56;;;;;;;;;;;36.60;91.90;;;;;;5136776;27;19910;-76
2023/07/23 05:32:22;;;;;;;;;;;36.90;90.90;;;;;;5134778;27;20002;-76
2023/07/23 05:34:48;;;;;;;;;;;37.70;89.10;;;;;;5136280;27;19910;-76
2023/07/23 05:37:14;;;;;;;;;;;37.30;88.20;;;;;;5136253;27;20299;-76
2023/07/23 05:39:39;;;;;;;;;;;38.30;86.70;;;;;;5136100;27;19990;-76
2023/07/23 05:42:05;;;;;;;;;;;38.10;85.40;;;;;;5135765;27;19918;-75
2023/07/23 05:44:31;;;;;;;;;;;38.10;85.50;;;;;;5136545;27;20032;-76
2023/07/23 05:46:57;;;;;;;;;;;38.40;84.40;;;;;;5135835;27;20370;-76
2023/07/23 05:49:24;;;;;;;;;;;38.50;83.70;;;;;;5134646;27;19910;-76
2023/07/23 05:51:50;;;;;;;;;;;39.50;82.70;;;;;;5135517;27;19926;-76
2023/07/23 05:54:16;;;;;;;;;;;40.00;81.30;;;;;;5136708;27;19903;-76
2023/07/23 05:56:42;;;;;;;;;;;40.60;79.60;;;;;;5135496;27;20401;-76
2023/07/23 05:59:07;;;;;;;;;;;41.80;77.50;;;;;;5136102;27;19956;-76
2023/07/23 06:01:33;;;;;;;;;;;42.70;73.10;;;;;;5135710;27;19903;-76
2023/07/23 06:03:59;;;;;;;;;;;42.40;72.50;;;;;;5135512;27;19907;-76
2023/07/23 06:06:25;;;;;;;;;;;42.90;71.90;;;;;;5135649;27;19903;-77
2023/07/23 06:08:51;;;;;;;;;;;43.40;69.80;;;;;;5135659;27;19903;-76
2023/07/23 06:11:17;;;;;;;;;;;43.90;67.10;;;;;;5135144;27;20022;-76
2023/07/23 06:13:42;;;;;;;;;;;44.60;65.90;;;;;;5135748;27;19910;-76
2023/07/23 06:16:08;;;;;;;;;;;45.00;64.90;;;;;;5135264;27;19903;-76
2023/07/23 06:18:35;;;;;;;;;;;45.60;64.10;;;;;;5135758;27;19953;-74
2023/07/23 06:21:02;;;;;;;;;;;45.90;62.20;;;;;;5135107;27;19937;-74
2023/07/23 06:23:28;;;;;;;;;;;45.80;61.80;;;;;;5135515;27;19915;-74
2023/07/23 06:25:54;;;;;;;;;;;46.30;60.50;;;;;;5135231;27;19903;-75
2023/07/23 06:28:20;;;;;;;;;;;45.80;59.40;;;;;;5133745;27;19915;-74
2023/07/23 06:30:46;;;;;;;;;;;46.30;59.00;;;;;;5135852;27;19908;-75
2023/07/23 06:33:12;;;;;;;;;;;46.70;59.00;;;;;;5134980;27;20347;-75
2023/07/23 06:35:41;;;;;;;;;;;47.30;57.30;;;;;;5135318;27;19994;-75
2023/07/23 06:38:07;;;;;;;;;;;47.80;58.00;;;;;;5134864;27;19946;-74
2023/07/23 06:40:33;;;;;;;;;;;48.10;57.90;;;;;;5134723;27;19995;-74
2023/07/23 06:42:58;;;;;;;;;;;47.70;57.70;;;;;;5134747;27;20367;-74
2023/07/23 06:45:24;;;;;;;;;;;47.80;57.20;;;;;;5135183;27;19911;-75
2023/07/23 06:47:50;;;;;;;;;;;46.90;56.40;;;;;;5134705;27;19907;-74
2023/07/23 06:50:17;;;;;;;;;;;46.50;56.30;;;;;;5134789;27;19942;-76
2023/07/23 06:52:44;;;;;;;;;;;46.50;55.80;;;;;;5134499;27;20358;-76
2023/07/23 06:55:09;;;;;;;;;;;46.00;56.30;;;;;;5134812;27;19903;-76
2023/07/23 06:57:35;;;;;;;;;;;44.20;57.90;;;;;;5134348;27;19994;-75
2023/07/23 07:00:01;;;;;;;;;;;45.40;58.60;;;;;;5134954;27;19998;-75
2023/07/23 07:02:27;;;;;;;;;;;46.70;57.60;;;;;;5133064;27;19911;-75
2023/07/23 07:04:53;;;;;;;;;;;46.20;57.40;;;;;;5134090;27;19942;-76
2023/07/23 07:07:18;;;;;;;;;;;46.10;58.40;;;;;;5134526;27;19919;-76
2023/07/23 07:09:44;;;;;;;;;;;47.00;57.70;;;;;;5134889;27;19926;-75
2023/07/23 07:12:10;;;;;;;;;;;47.70;57.40;;;;;;5132728;27;19994;-75
2023/07/23 07:14:36;;;;;;;;;;;48.10;56.50;;;;;;5134805;27;20377;-75
2023/07/23 07:17:02;;;;;;;;;;;48.60;56.10;;;;;;5134109;27;19908;-75
2023/07/23 07:19:27;;;;;;;;;;;48.70;55.10;;;;;;5132753;27;19911;-76
2023/07/23 07:21:54;;;;;;;;;;;48.60;54.50;;;;;;5133854;27;19911;-76
2023/07/23 07:24:19;;;;;;;;;;;48.50;55.00;;;;;;5134116;27;19959;-76
2023/07/23 07:26:45;;;;;;;;;;;47.30;55.20;;;;;;5133855;27;20002;-75
2023/07/23 07:29:11;;;;;;;;;;;46.60;56.70;;;;;;5134044;27;19903;-75
2023/07/23 07:31:37;;;;;;;;;;;46.00;56.70;;;;;;5133928;27;19960;-75
2023/07/23 07:34:03;;;;;;;;;;;45.80;56.40;;;;;;5134035;27;19931;-74
2023/07/23 07:36:30;;;;;;;;;;;45.20;56.70;;;;;;5133811;27;19929;-74
2023/07/23 07:38:56;;;;;;;;;;;44.60;57.60;;;;;;5134449;27;19903;-75
2023/07/23 07:41:22;;;;;;;;;;;44.40;58.30;;;;;;5133864;28;19915;-74
2023/07/23 07:43:48;;;;;;;;;;;44.20;57.90;;;;;;5134229;28;19911;-75
2023/07/23 07:46:13;;;;;;;;;;;44.00;58.30;;;;;;5133765;28;19942;-75
2023/07/23 07:48:40;;;;;;;;;;;44.20;57.90;;;;;;5134267;28;19948;-75
2023/07/23 07:51:06;;;;;;;;;;;43.70;58.30;;;;;;5134022;27;19946;-73
2023/07/23 07:53:32;;;;;;;;;;;43.20;58.00;;;;;;5133979;27;19907;-75
2023/07/23 07:55:59;;;;;;;;;;;43.00;57.90;;;;;;5132305;28;19957;-75
2023/07/23 07:58:25;;;;;;;;;;;42.90;57.50;;;;;;5134431;27;20001;-75
2023/07/23 08:00:52;;;;;;;;;;;42.90;59.30;;;;;;5133842;27;20016;-75
2023/07/23 08:03:18;;;;;;;;;;;42.70;58.20;;;;;;5133117;28;19925;-75
2023/07/23 08:05:44;;;;;;;;;;;42.80;58.10;;;;;;5134292;27;19903;-75
2023/07/23 08:08:10;;;;;;;;;;;43.20;58.30;;;;;;5133723;27;19910;-74
2023/07/23 08:10:36;;;;;;;;;;;43.20;57.10;;;;;;5133601;27;20415;-75
2023/07/23 08:13:02;;;;;;;;;;;43.20;55.00;;;;;;5133596;27;19946;-75
2023/07/23 08:15:33;;;;;;;;;;;43.10;54.70;;;;;;5135182;27;20004;-74
2023/07/23 08:17:59;;;;;;;;;;;43.00;51.40;;;;;;5137679;27;19911;-74
2023/07/23 08:20:27;;;;;;;;;;;43.10;52.00;;;;;;5137567;27;19904;-75
2023/07/23 08:22:54;;;;;;;;;;;43.30;53.40;;;;;;5137428;27;19964;-75
2023/07/23 08:25:20;;;;;;;;;;;43.10;56.10;;;;;;5138121;27;19990;-74
2023/07/23 08:27:48;;;;;;;;;;;43.10;55.80;;;;;;5135968;27;19954;-75
2023/07/23 08:30:14;;;;;;;;;;;42.90;57.70;;;;;;5137397;27;19910;-75
2023/07/23 08:32:41;;;;;;;;;;;42.90;57.80;;;;;;5118579;27;19919;-75
2023/07/23 08:35:07;;;;;;;;;;;43.20;57.60;;;;;;5137343;27;19926;-75
2023/07/23 08:37:33;;;;;;;;;;;43.40;56.30;;;;;;5135950;27;20385;-74
2023/07/23 08:39:59;;;;;;;;;;;43.10;55.30;;;;;;5135789;27;19903;-74
2023/07/23 08:42:46;;;;;;;;;;;43.00;55.20;;;;;;5136874;27;19912;-75
2023/07/23 08:45:28;;;;;;;;;;;42.80;54.70;;;;;;5135768;27;19994;-76
2023/07/23 08:48:12;;;;;;;;;;;42.50;54.20;;;;;;5137564;27;20003;-76
2023/07/23 08:50:38;;;;;;;;;;;42.20;55.10;;;;;;5136066;27;20030;-75
2023/07/23 08:53:05;;;;;;;;;;;42.30;54.60;;;;;;5136823;27;19994;-75
2023/07/23 08:55:31;;;;;;;;;;;42.50;53.70;;;;;;5135471;27;19920;-74
2023/07/23 08:57:57;;;;;;;;;;;42.20;53.50;;;;;;5136857;27;19907;-74
2023/07/23 09:00:27;;;;;;;;;;;42.10;52.50;;;;;;5137378;27;19903;-75
2023/07/23 09:02:53;;;;;;;;;;;42.30;51.60;;;;;;5136943;27;19936;-74
2023/07/23 09:05:19;;;;;;;;;;;42.20;51.80;;;;;;5135361;27;19904;-75
2023/07/23 09:07:44;;;;;;;;;;;42.10;50.80;;;;;;5135397;27;20006;-75
2023/07/23 09:10:11;;;;;;;;;;;42.10;51.10;;;;;;5135254;27;19914;-76
2023/07/23 09:12:40;;;;;;;;;;;42.30;50.10;;;;;;5136771;27;19903;-75
2023/07/23 09:15:06;;;;;;;;;;;42.50;50.10;;;;;;5136564;27;19903;-75
2023/07/23 09:17:32;;;;;;;;;;;41.80;50.60;;;;;;5136396;27;19904;-75
2023/07/23 09:19:59;;;;;;;;;;;41.80;51.10;;;;;;5136706;27;19926;-74
2023/07/23 09:22:24;;;;;;;;;;;41.60;52.10;;;;;;5134900;27;19930;-75
2023/07/23 09:24:57;;;;;;;;;;;41.40;52.50;;;;;;5134989;27;19907;-75
2023/07/23 09:27:23;;;;;;;;;;;41.30;50.70;;;;;;5134088;27;19910;-75
2023/07/23 09:29:49;;;;;;;;;;;41.40;51.60;;;;;;5136135;27;19904;-75
2023/07/23 09:32:25;;;;;;;;;;;41.40;52.80;;;;;;5136264;27;19938;-75
2023/07/23 09:34:52;;;;;;;;;;;41.40;52.50;;;;;;5135355;27;19944;-74
2023/07/23 09:37:18;;;;;;;;;;;41.40;53.30;;;;;;5136872;27;19946;-75
2023/07/23 09:39:43;;;;;;;;;;;41.40;51.20;;;;;;5136117;27;20358;-75
2023/07/23 09:42:10;;;;;;;;;;;41.40;51.20;;;;;;5135832;27;19987;-75
2023/07/23 09:44:37;;;;;;;;;;;41.30;52.00;;;;;;5135972;27;19930;-75
2023/07/23 09:47:03;;;;;;;;;;;41.10;52.40;;;;;;5135929;27;19903;-75
2023/07/23 09:49:32;;;;;;;;;;;41.10;52.00;;;;;;5134646;27;20335;-75
2023/07/23 09:51:58;;;;;;;;;;;41.10;51.80;;;;;;5134421;27;19903;-75
2023/07/23 09:54:25;;;;;;;;;;;40.80;51.70;;;;;;5135775;27;19903;-75
2023/07/23 09:56:51;;;;;;;;;;;40.80;52.70;;;;;;5135529;27;20002;-74
2023/07/23 09:59:17;;;;;;;;;;;40.60;53.50;;;;;;5135793;27;19941;-75
2023/07/23 10:01:43;;;;;;;;;;;40.70;54.20;;;;;;5135870;27;19903;-75
2023/07/23 10:04:10;;;;;;;;;;;40.60;54.30;;;;;;5134207;27;19914;-74
2023/07/23 10:06:36;;;;;;;;;;;40.50;54.50;;;;;;5135563;27;20040;-75
2023/07/23 10:09:02;;;;;;;;;;;40.70;54.20;;;;;;5135888;27;19994;-74
2023/07/23 10:11:28;;;;;;;;;;;40.70;54.60;;;;;;5135473;27;19997;-75
2023/07/23 10:13:54;;;;;;;;;;;40.80;55.00;;;;;;5135737;27;20367;-74
2023/07/23 10:16:26;;;;;;;;;;;40.60;54.90;;;;;;5133992;27;20193;-74
2023/07/23 10:18:54;;;;;;;;;;;40.70;54.90;;;;;;5133995;27;19903;-74
2023/07/23 10:21:19;;;;;;;;;;;40.30;54.40;;;;;;5135278;27;19990;-74
2023/07/23 10:23:52;;;;;;;;;;;40.40;54.60;;;;;;5135197;27;20006;-75
2023/07/23 10:26:25;;;;;;;;;;;40.30;54.60;;;;;;5135208;27;19954;-74
2023/07/23 10:28:51;;;;;;;;;;;40.10;55.50;;;;;;5135192;27;19911;-74
2023/07/23 10:31:20;;;;;;;;;;;40.00;56.50;;;;;;5135038;27;19910;-75
2023/07/23 10:33:49;;;;;;;;;;;40.10;56.80;;;;;;5135554;27;19954;-75
2023/07/23 10:36:15;;;;;;;;;;;39.70;58.10;;;;;;5133536;27;20309;-75
2023/07/23 10:38:40;;;;;;;;;;;39.60;57.70;;;;;;5134198;27;19907;-75
2023/07/23 10:41:07;;;;;;;;;;;39.20;59.50;;;;;;5134645;27;19903;-75
2023/07/23 10:43:37;;;;;;;;;;;39.20;60.20;;;;;;5135025;27;20458;-74
2023/07/23 10:46:03;;;;;;;;;;;39.40;62.10;;;;;;5134784;27;19998;-75
2023/07/23 10:48:49;;;;;;;;;;;39.20;64.50;;;;;;5135272;27;20267;-74
2023/07/23 10:51:16;;;;;;;;;;;39.20;64.10;;;;;;5134645;27;19911;-74
2023/07/23 10:53:53;;;;;;;;;;;39.40;64.00;;;;;;5133252;27;20066;-73
2023/07/23 10:56:23;;;;;;;;;;;39.10;65.40;;;;;;5134906;27;19907;-75
2023/07/23 10:58:49;;;;;;;;;;;39.00;65.10;;;;;;5135203;27;20305;-75
2023/07/23 11:01:19;;;;;;;;;;;38.60;64.60;;;;;;5134567;27;19907;-75
2023/07/23 11:03:45;;;;;;;;;;;38.50;65.00;;;;;;5134500;27;19955;-76
2023/07/23 11:06:31;;;;;;;;;;;38.60;64.40;;;;;;5134664;27;19950;-75
2023/07/23 11:08:58;;;;;;;;;;;38.70;63.00;;;;;;5133050;27;19910;-75
2023/07/23 11:11:29;;;;;;;;;;;38.90;62.30;;;;;;5134402;27;19942;-74
2023/07/23 11:13:55;;;;;;;;;;;39.10;61.80;;;;;;5134540;27;20054;-75
2023/07/23 11:16:21;;;;;;;;;;;39.40;61.70;;;;;;5134495;27;20359;-74
2023/07/23 11:18:47;;;;;;;;;;;39.40;61.10;;;;;;5132925;27;19926;-75
2023/07/23 11:21:14;;;;;;;;;;;39.40;60.50;;;;;;5132727;27;19910;-77
2023/07/23 11:23:39;;;;;;;;;;;39.60;59.80;;;;;;5134075;27;20404;-75
2023/07/23 11:26:05;;;;;;;;;;;39.50;59.20;;;;;;5132551;27;19903;-74
2023/07/23 11:28:34;;;;;;;;;;;39.70;58.10;;;;;;5134060;27;19915;-74
2023/07/23 11:31:00;;;;;;;;;;;39.70;57.90;;;;;;5133948;27;20376;-74
2023/07/23 11:33:30;;;;;;;;;;;39.90;57.50;;;;;;5134561;27;19984;-75
2023/07/23 11:35:56;;;;;;;;;;;40.10;57.10;;;;;;5134050;27;19910;-74
2023/07/23 11:38:31;;;;;;;;;;;40.10;57.60;;;;;;5134096;27;19903;-74
2023/07/23 11:40:58;;;;;;;;;;;40.20;57.30;;;;;;5134259;27;19911;-74
2023/07/23 11:43:24;;;;;;;;;;;40.10;57.60;;;;;;5134364;27;19911;-74
2023/07/23 11:45:51;;;;;;;;;;;40.10;57.50;;;;;;5134034;27;19911;-75
2023/07/23 11:48:17;;;;;;;;;;;40.00;57.70;;;;;;5134330;27;19903;-74
2023/07/23 11:50:44;;;;;;;;;;;40.10;58.20;;;;;;5135820;27;19903;-74
2023/07/23 11:53:10;;;;;;;;;;;39.90;59.20;;;;;;5137982;27;19913;-74
2023/07/23 11:55:36;;;;;;;;;;;39.80;60.20;;;;;;5136529;27;19998;-75
2023/07/23 11:58:02;;;;;;;;;;;39.50;61.50;;;;;;5137915;27;19999;-74
2023/07/23 12:00:31;;;;;;;;;;;39.60;60.80;;;;;;5138625;27;19903;-75
2023/07/23 12:02:57;;;;;;;;;;;39.90;61.10;;;;;;5137766;27;19911;-74
2023/07/23 12:05:23;;;;;;;;;;;39.70;61.40;;;;;;5138413;27;19908;-74
2023/07/23 12:07:52;;;;;;;;;;;39.60;62.80;;;;;;5137908;27;19911;-75
2023/07/23 12:10:18;;;;;;;;;;;39.80;63.40;;;;;;5137824;27;19904;-74
2023/07/23 12:12:48;;;;;;;;;;;39.40;64.50;;;;;;5137526;27;19904;-74
2023/07/23 12:15:14;;;;;;;;;;;39.30;65.60;;;;;;5137615;27;19904;-75
2023/07/23 12:17:40;;;;;;;;;;;39.20;65.10;;;;;;5137593;27;19999;-74
2023/07/23 12:20:09;;;;;;;;;;;39.50;65.90;;;;;;5137731;27;20270;-74
2023/07/23 12:22:49;;;;;;;;;;;39.30;65.50;;;;;;5137460;27;19914;-74
2023/07/23 12:25:15;;;;;;;;;;;39.50;63.60;;;;;;5137513;27;19903;-74
2023/07/23 12:27:41;;;;;;;;;;;39.40;66.60;;;;;;5135947;27;19914;-75
2023/07/23 12:30:07;;;;;;;;;;;39.80;66.20;;;;;;5136147;27;19907;-75
2023/07/23 12:32:34;;;;;;;;;;;39.80;66.70;;;;;;5137247;27;19994;-75
2023/07/23 12:35:00;;;;;;;;;;;40.00;67.60;;;;;;5137765;27;19903;-74
2023/07/23 12:37:26;;;;;;;;;;;40.10;68.00;;;;;;5137812;27;19994;-75
2023/07/23 12:39:54;;;;;;;;;;;40.20;68.80;;;;;;5137549;27;20322;-74
2023/07/23 12:42:19;;;;;;;;;;;40.10;71.30;;;;;;5137180;27;19970;-74
2023/07/23 12:44:45;;;;;;;;;;;40.20;73.00;;;;;;5137737;27;20367;-74
2023/07/23 12:47:11;;;;;;;;;;;40.00;73.70;;;;;;5137216;27;19907;-75
2023/07/23 12:49:37;;;;;;;;;;;39.40;75.50;;;;;;5135768;27;19934;-74
2023/07/23 12:52:04;;;;;;;;;;;39.50;76.20;;;;;;5136883;27;19907;-74
2023/07/23 12:54:32;;;;;;;;;;;39.60;76.60;;;;;;5137558;27;19909;-75
2023/07/23 12:56:58;;;;;;;;;;;39.80;77.20;;;;;;5135422;27;20351;-75
2023/07/23 12:59:24;;;;;;;;;;;39.40;77.40;;;;;;5135567;27;19904;-74
2023/07/23 13:01:50;;;;;;;;;;;39.40;78.90;;;;;;5136241;27;19904;-74
2023/07/23 13:04:15;;;;;;;;;;;39.20;80.90;;;;;;5136993;27;20424;-74
2023/07/23 13:06:41;;;;;;;;;;;39.00;83.40;;;;;;5136906;27;19907;-74
2023/07/23 13:09:08;;;;;;;;;;;39.10;84.70;;;;;;5136964;27;20013;-74
2023/07/23 13:11:34;;;;;;;;;;;38.60;87.70;;;;;;5136536;27;20355;-74
2023/07/23 13:14:00;;;;;;;;;;;38.60;89.90;;;;;;5136899;27;19903;-74
2023/07/23 13:16:26;;;;;;;;;;;38.40;90.60;;;;;;5136955;27;20344;-72
2023/07/23 13:18:51;;;;;;;;;;;38.50;90.80;;;;;;5136419;27;19938;-74
2023/07/23 13:21:17;;;;;;;;;;;38.70;90.90;;;;;;5136634;27;20346;-74
2023/07/23 13:23:43;;;;;;;;;;;38.90;91.40;;;;;;5136811;27;19919;-75
2023/07/23 13:26:09;;;;;;;;;;;38.60;92.50;;;;;;5136414;27;20267;-74
2023/07/23 13:28:34;;;;;;;;;;;38.40;93.40;;;;;;5136767;27;19903;-74
2023/07/23 13:31:00;;;;;;;;;;;38.60;93.20;;;;;;5136049;27;19903;-74
2023/07/23 13:33:26;;;;;;;;;;;38.80;93.90;;;;;;5136283;27;20013;-74
2023/07/23 13:35:53;;;;;;;;;;;38.80;94.10;;;;;;5134863;27;19903;-74
2023/07/23 13:38:19;;;;;;;;;;;38.50;94.60;;;;;;5134756;27;19926;-74
2023/07/23 13:40:45;;;;;;;;;;;38.50;95.10;;;;;;5136108;27;19903;-74
2023/07/23 13:43:11;;;;;;;;;;;38.50;95.10;;;;;;5136008;27;19923;-74
2023/07/23 13:45:37;;;;;;;;;;;38.60;95.30;;;;;;5136013;27;19904;-74
2023/07/23 13:48:03;;;;;;;;;;;38.70;95.30;;;;;;5136163;27;20272;-73
2023/07/23 13:50:28;;;;;;;;;;;38.90;94.50;;;;;;5135862;27;20345;-74
2023/07/23 13:52:54;;;;;;;;;;;39.10;94.50;;;;;;5136040;27;20043;-74
2023/07/23 13:55:20;;;;;;;;;;;38.80;94.90;;;;;;5136275;27;19917;-74
2023/07/23 13:57:46;;;;;;;;;;;38.30;95.80;;;;;;5134211;27;19948;-74
2023/07/23 14:00:12;;;;;;;;;;;38.40;95.90;;;;;;5135668;27;19976;-74
2023/07/23 14:02:42;;;;;;;;;;;38.10;96.30;;;;;;5135616;27;20324;-75
2023/07/23 14:05:12;;;;;;;;;;;38.00;96.40;;;;;;5135882;27;19903;-74
2023/07/23 14:07:38;;;;;;;;;;;38.00;97.00;;;;;;5135707;27;19903;-74
2023/07/23 14:10:05;;;;;;;;;;;37.70;97.10;;;;;;5135799;27;19910;-74
2023/07/23 14:12:30;;;;;;;;;;;37.80;97.60;;;;;;5135156;27;19951;-74